»·PEaware :: UPS754 KELP-KABQ

UPS754 :: KELP-KABQ

FLIGHT INFORMATION

Flight Status: Arrived
Operator:
United Parcel Service
More flights by this operator :: More flights under this callsign
Pilot: Brenden M. (4822)
Aircraft: Unknown
(B74F)
More flights by this aircraft type
Origin: KELP El Paso Intl
United States
Destination: KABQ Albuquerque Intl Sunport
United States
More flights between these airports :: More routes between these airports
Route: +ATKNN5 ATKNN RUTTER TCS J13 ABQ
File this flight plan on PilotEdge
Remarks:
Altitude:
(Current/Filed)
28,000ft
Speed:
(Current/Filed)
450kts
Departed: 27-Mar-20 05:03 PM
Arrived: 27-Mar-20 05:36 PM
Distance/Time
Traveled:
195nm/0:33
Distance/Time
To Go:
Arrived

Flight Plot

Page will automatically refresh every two minutes.

Flight plan parsing failed; only flown route is shown


Map Options




Map Legend


Flown Route
Filed Route
Departure Airport
Arrival Airport
Navaid (VOR, NDB)
Fix

Horizontal Profiles

Position Reports

Time Latitude Longitude Heading Altitude Ground
Speed
27-Mar-20 16:24 31.819055 -106.368013 138 3971ft 0kts
27-Mar-20 16:24 31.819055 -106.368013 138 3971ft 0kts
27-Mar-20 16:25 31.819055 -106.368013 138 3971ft 0kts
27-Mar-20 16:27 31.819055 -106.368013 138 3971ft 0kts
27-Mar-20 16:28 31.819055 -106.368013 138 3971ft 0kts
27-Mar-20 16:29 31.819055 -106.368013 138 3971ft 0kts
27-Mar-20 16:30 31.819055 -106.368013 138 3971ft 0kts
27-Mar-20 16:31 31.819055 -106.368013 138 3971ft 0kts
27-Mar-20 16:32 31.819055 -106.368013 138 3971ft 0kts
27-Mar-20 16:33 31.819055 -106.368013 138 3971ft 0kts
27-Mar-20 16:34 31.819055 -106.368013 138 3971ft 0kts
27-Mar-20 16:35 31.819055 -106.368013 138 3971ft 0kts
27-Mar-20 16:36 31.819055 -106.368013 138 3971ft 0kts
27-Mar-20 16:37 31.819055 -106.368013 138 3971ft 0kts
27-Mar-20 16:38 31.819055 -106.368013 138 3971ft 0kts
27-Mar-20 16:39 31.819055 -106.368013 138 3971ft 0kts
27-Mar-20 16:40 31.819055 -106.368013 138 3971ft 0kts
27-Mar-20 16:41 31.819055 -106.368013 138 3971ft 0kts
27-Mar-20 16:42 31.819055 -106.368013 138 3971ft 0kts
27-Mar-20 16:43 31.819055 -106.368013 138 3971ft 0kts
27-Mar-20 16:44 31.819055 -106.368013 138 3971ft 0kts
27-Mar-20 16:45 31.819055 -106.368013 138 3971ft 0kts
27-Mar-20 16:46 31.819055 -106.368013 138 3971ft 0kts
27-Mar-20 16:47 31.819055 -106.368013 138 3971ft 0kts
27-Mar-20 16:48 31.819054 -106.368013 138 3971ft 0kts
27-Mar-20 16:49 31.819218 -106.367553 359 3971ft 4kts
27-Mar-20 16:50 31.820411 -106.367624 343 3971ft 3kts
27-Mar-20 16:51 31.821192 -106.368316 317 3971ft 3kts
27-Mar-20 16:52 31.821800 -106.368877 323 3971ft 2kts
27-Mar-20 16:53 31.822164 -106.369248 306 3971ft 0kts
27-Mar-20 16:54 31.822165 -106.369250 306 3971ft 0kts
27-Mar-20 16:55 31.822167 -106.369253 306 3971ft 0kts
27-Mar-20 16:56 31.822168 -106.369255 306 3971ft 0kts
27-Mar-20 16:57 31.822170 -106.369258 306 3971ft 0kts
27-Mar-20 16:58 31.822171 -106.369260 306 3971ft 0kts
27-Mar-20 16:59 31.822173 -106.369262 306 3971ft 0kts
27-Mar-20 17:00 31.822174 -106.369265 306 3971ft 0kts
27-Mar-20 17:01 31.822360 -106.369974 283 3971ft 7kts
27-Mar-20 17:02 31.812361 -106.384550 231 4036ft 179kts
27-Mar-20 17:03 31.783377 -106.439120 244 7222ft 188kts
27-Mar-20 17:04 31.759860 -106.496753 264 9006ft 227kts
27-Mar-20 17:05 31.796486 -106.565839 297 11519ft 273kts
27-Mar-20 17:06 31.872196 -106.628558 323 12893ft 385kts
27-Mar-20 17:07 31.974094 -106.693908 321 15213ft 439kts
27-Mar-20 17:08 32.079385 -106.763006 319 19491ft 433kts
27-Mar-20 17:09 32.184647 -106.832815 317 22973ft 433kts
27-Mar-20 17:10 32.293819 -106.895525 338 26264ft 462kts
27-Mar-20 17:11 32.427915 -106.894290 350 27925ft 505kts
27-Mar-20 17:12 32.576419 -106.890422 352 27911ft 564kts
27-Mar-20 17:13 32.739815 -106.885705 353 27893ft 604kts
27-Mar-20 17:14 32.907543 -106.880782 352 27886ft 577kts
27-Mar-20 17:15 33.057860 -106.876356 351 27890ft 515kts
27-Mar-20 17:16 33.201883 -106.872093 351 27894ft 519kts
27-Mar-20 17:17 33.346141 -106.867813 351 27891ft 519kts
27-Mar-20 17:18 33.490750 -106.863509 351 26741ft 520kts
27-Mar-20 17:19 33.635404 -106.859192 351 24936ft 515kts
27-Mar-20 17:20 33.776550 -106.854954 351 23138ft 500kts
27-Mar-20 17:21 33.912777 -106.850863 351 21339ft 481kts
27-Mar-20 17:22 34.043663 -106.846919 352 19547ft 460kts
27-Mar-20 17:23 34.168648 -106.843175 353 17739ft 440kts
27-Mar-20 17:24 34.288143 -106.839553 354 15939ft 419kts
27-Mar-20 17:25 34.400191 -106.836132 354 15106ft 376kts
27-Mar-20 17:26 34.498787 -106.803265 19 13917ft 358kts
27-Mar-20 17:27 34.584442 -106.756668 19 12111ft 323kts
27-Mar-20 17:28 34.664820 -106.713293 19 11098ft 312kts
27-Mar-20 17:29 34.744306 -106.670916 19 9941ft 309kts
27-Mar-20 17:30 34.821900 -106.629514 19 9057ft 302kts
27-Mar-20 17:31 34.898031 -106.588817 19 8779ft 292kts
27-Mar-20 17:32 34.968865 -106.545515 27 6974ft 264kts
27-Mar-20 17:33 35.024294 -106.526649 337 6226ft 168kts
27-Mar-20 17:34 35.043971 -106.566253 274 5522ft 130kts
27-Mar-20 17:35 35.044193 -106.595468 270 5368ft 24kts
27-Mar-20 17:36 35.045755 -106.602323 271 5368ft 19kts
27-Mar-20 17:37 35.045803 -106.609137 268 5368ft 24kts
27-Mar-20 17:38 35.046396 -106.615362 266 5368ft 0kts
27-Mar-20 17:39 35.046396 -106.615362 266 5368ft 0kts
27-Mar-20 17:40 35.046396 -106.615362 266 5368ft 0kts
27-Mar-20 17:41 35.046396 -106.615362 266 5368ft 0kts

Navigation Log

Ident Type
Flight plan parsing failed, navigation log unavailable